createdAt,value
2022-09-06T00:01:23.614Z,16.90
2022-09-06T00:03:50.556Z,18.50
2022-09-06T00:06:18.185Z,16.90
2022-09-06T00:08:45.725Z,16.80
2022-09-06T00:11:13.054Z,17.00
2022-09-06T00:13:40.058Z,18.10
2022-09-06T00:16:08.420Z,17.80
2022-09-06T00:18:35.212Z,16.70
2022-09-06T00:21:02.021Z,16.80
2022-09-06T00:23:28.713Z,17.90
2022-09-06T00:26:01.911Z,17.80
2022-09-06T00:28:28.690Z,16.90
2022-09-06T00:30:55.535Z,16.70
2022-09-06T00:33:22.317Z,17.10
2022-09-06T00:35:49.295Z,18.40
2022-09-06T00:38:16.040Z,18.60
2022-09-06T00:40:42.622Z,16.70
2022-09-06T00:43:09.279Z,18.80
2022-09-06T00:45:35.934Z,18.30
2022-09-06T00:48:04.497Z,18.80
2022-09-06T00:50:31.205Z,16.60
2022-09-06T00:52:58.037Z,18.20
2022-09-06T00:55:26.225Z,16.40
2022-09-06T00:57:53.284Z,18.30
2022-09-06T01:00:20.335Z,18.00
2022-09-06T01:02:47.624Z,16.70
2022-09-06T01:05:15.156Z,16.10
2022-09-06T01:07:41.866Z,17.40
2022-09-06T01:10:27.646Z,17.10
2022-09-06T01:13:13.287Z,16.10
2022-09-06T01:15:52.904Z,16.10
2022-09-06T01:18:33.950Z,16.00
2022-09-06T01:21:23.932Z,16.00
2022-09-06T01:23:53.566Z,15.90
2022-09-06T01:26:23.200Z,15.80
2022-09-06T01:28:50.847Z,15.80
2022-09-06T01:31:27.566Z,16.40
2022-09-06T01:34:00.180Z,15.80
2022-09-06T01:36:29.155Z,16.30
2022-09-06T01:38:56.086Z,16.80
2022-09-06T01:41:28.548Z,15.70
2022-09-06T01:43:55.689Z,15.80
2022-09-06T01:46:27.342Z,16.10
2022-09-06T01:49:20.464Z,17.30
2022-09-06T01:52:05.906Z,15.70
2022-09-06T01:54:52.852Z,15.70
2022-09-06T01:57:33.013Z,16.10
2022-09-06T02:00:09.314Z,15.70
2022-09-06T02:02:36.203Z,15.70
2022-09-06T02:05:06.518Z,15.70
2022-09-06T02:07:34.364Z,15.80
2022-09-06T02:10:09.438Z,16.50
2022-09-06T02:12:38.349Z,15.80
2022-09-06T02:15:07.160Z,17.30
2022-09-06T02:17:35.563Z,15.90
2022-09-06T02:20:04.788Z,18.00
2022-09-06T02:22:33.368Z,18.50
2022-09-06T02:25:01.136Z,17.10
2022-09-06T02:27:29.226Z,17.10
2022-09-06T02:29:57.375Z,17.40
2022-09-06T02:32:25.718Z,17.30
2022-09-06T02:34:54.021Z,17.80
2022-09-06T02:37:20.853Z,16.60
2022-09-06T02:39:47.571Z,16.70
2022-09-06T02:42:15.336Z,18.70
2022-09-06T02:44:41.959Z,16.90
2022-09-06T02:47:08.622Z,17.00
2022-09-06T02:49:35.257Z,18.30
2022-09-06T02:52:02.000Z,19.40
2022-09-06T02:54:28.586Z,17.20
2022-09-06T02:56:55.284Z,17.60
2022-09-06T02:59:21.930Z,18.90
2022-09-06T03:01:48.704Z,18.40
2022-09-06T03:04:15.546Z,19.50
2022-09-06T03:06:42.145Z,18.10
2022-09-06T03:09:10.540Z,17.80
2022-09-06T03:11:38.047Z,17.10
2022-09-06T03:14:04.894Z,18.40
2022-09-06T03:16:31.558Z,17.60
2022-09-06T03:18:58.236Z,17.60
2022-09-06T03:21:24.853Z,18.30
2022-09-06T03:23:51.553Z,16.90
2022-09-06T03:26:18.222Z,17.70
2022-09-06T03:28:45.051Z,16.70
2022-09-06T03:31:11.805Z,16.70
2022-09-06T03:33:38.538Z,16.70
2022-09-06T03:36:05.227Z,16.90
2022-09-06T03:38:31.876Z,16.50
2022-09-06T03:40:58.761Z,17.10
2022-09-06T03:43:26.265Z,17.80
2022-09-06T03:45:53.992Z,17.20
2022-09-06T03:48:21.731Z,16.50
2022-09-06T03:50:49.534Z,17.80
2022-09-06T03:53:16.999Z,17.90
2022-09-06T03:55:47.736Z,17.70
2022-09-06T03:58:15.424Z,16.40
2022-09-06T04:00:42.279Z,19.40
2022-09-06T04:03:09.217Z,17.00
2022-09-06T04:05:36.392Z,18.70
2022-09-06T04:08:03.041Z,16.30
2022-09-06T04:10:29.721Z,17.70
2022-09-06T04:12:56.362Z,17.00
2022-09-06T04:15:23.023Z,18.40
2022-09-06T04:17:49.823Z,17.70
2022-09-06T04:20:16.708Z,18.10
2022-09-06T04:22:43.600Z,16.10
2022-09-06T04:25:10.647Z,16.10
2022-09-06T04:27:37.257Z,16.20
2022-09-06T04:30:04.172Z,18.30
2022-09-06T04:32:32.735Z,16.20
2022-09-06T04:34:59.384Z,16.20
2022-09-06T04:37:25.982Z,17.50
2022-09-06T04:39:52.666Z,16.20
2022-09-06T04:42:19.455Z,17.30
2022-09-06T04:44:46.146Z,18.70
2022-09-06T04:47:14.859Z,17.30
2022-09-06T04:49:41.988Z,18.00
2022-09-06T04:52:08.757Z,17.20
2022-09-06T04:54:35.461Z,20.00
2022-09-06T04:57:02.280Z,18.90
2022-09-06T04:59:28.952Z,16.20
2022-09-06T05:01:55.725Z,17.60
2022-09-06T05:04:22.576Z,17.50
2022-09-06T05:06:49.466Z,16.00
2022-09-06T05:09:16.324Z,16.00
2022-09-06T05:11:43.160Z,16.00
2022-09-06T05:14:09.878Z,16.00
2022-09-06T05:16:36.616Z,16.00
2022-09-06T05:19:03.369Z,15.80
2022-09-06T05:21:29.970Z,16.10
2022-09-06T05:23:58.711Z,17.20
2022-09-06T05:26:25.727Z,18.40
2022-09-06T05:28:52.409Z,19.00
2022-09-06T05:31:29.301Z,15.90
2022-09-06T05:33:56.521Z,15.90
2022-09-06T05:36:24.797Z,17.40
2022-09-06T05:38:51.826Z,16.00
2022-09-06T05:41:18.755Z,18.70
2022-09-06T05:43:45.959Z,17.30
2022-09-06T05:46:13.068Z,17.70
2022-09-06T05:48:39.876Z,17.70
2022-09-06T05:51:08.258Z,17.90
2022-09-06T05:53:45.091Z,16.30
2022-09-06T05:56:12.799Z,18.30
2022-09-06T05:58:39.570Z,16.30
2022-09-06T06:01:18.573Z,17.40
2022-09-06T06:03:52.649Z,16.50
2022-09-06T06:06:19.701Z,16.50
2022-09-06T06:08:46.560Z,16.70
2022-09-06T06:11:13.599Z,16.70
2022-09-06T06:13:40.648Z,16.70
2022-09-06T06:16:08.081Z,16.90
2022-09-06T06:18:34.893Z,18.00
2022-09-06T06:21:08.668Z,17.90
2022-09-06T06:23:35.378Z,16.90
2022-09-06T06:26:02.088Z,17.80
2022-09-06T06:28:29.000Z,17.60
2022-09-06T06:30:55.777Z,19.10
2022-09-06T06:33:22.556Z,17.10
2022-09-06T06:35:58.690Z,17.10
2022-09-06T06:38:29.890Z,17.20
2022-09-06T06:41:00.974Z,17.70
2022-09-06T06:43:30.003Z,18.20
2022-09-06T06:45:56.866Z,18.90
2022-09-06T06:48:23.952Z,19.30
2022-09-06T06:50:50.790Z,17.70
2022-09-06T06:53:17.519Z,20.30
2022-09-06T06:55:46.295Z,19.00
2022-09-06T06:58:12.914Z,19.20
2022-09-06T07:00:40.634Z,19.00
2022-09-06T07:03:08.014Z,18.20
2022-09-06T07:08:21.645Z,19.80
2022-09-06T07:10:48.386Z,18.40
2022-09-06T07:13:15.010Z,21.50
2022-09-06T07:15:41.668Z,18.50
2022-09-06T07:18:08.413Z,19.10
2022-09-06T07:26:08.502Z,21.20
2022-09-06T07:28:35.153Z,19.10
2022-09-06T07:31:02.139Z,21.70
2022-09-06T07:33:29.286Z,19.90
2022-09-06T07:36:00.041Z,18.50
2022-09-06T07:38:30.352Z,18.60
2022-09-06T07:40:57.996Z,18.70
2022-09-06T07:43:25.465Z,20.20
2022-09-06T07:46:08.909Z,20.30
2022-09-06T07:48:37.714Z,18.90
2022-09-06T07:51:09.012Z,19.00
2022-09-06T07:53:36.762Z,19.00
2022-09-06T07:56:05.488Z,19.90
2022-09-06T07:58:32.752Z,21.90
2022-09-06T08:01:15.767Z,19.20
2022-09-06T08:03:42.689Z,19.30
2022-09-06T08:06:09.968Z,20.90
2022-09-06T08:11:25.090Z,20.60
2022-09-06T08:13:54.770Z,19.50
2022-09-06T08:16:22.116Z,19.50
2022-09-06T08:18:52.914Z,19.60
2022-09-06T08:21:20.266Z,19.60
2022-09-06T08:23:48.286Z,19.70
2022-09-06T08:26:15.897Z,19.80
2022-09-06T08:28:42.648Z,19.90
2022-09-06T08:31:10.578Z,20.00
2022-09-06T08:33:37.756Z,22.20
2022-09-06T08:36:05.112Z,22.40
2022-09-06T08:38:32.149Z,20.40
2022-09-06T08:41:14.252Z,20.50
2022-09-06T08:43:49.276Z,20.60
2022-09-06T08:46:17.594Z,20.80
2022-09-06T08:48:44.423Z,22.10
2022-09-06T08:51:20.275Z,22.80
2022-09-06T08:53:46.969Z,21.30
2022-09-06T08:56:31.521Z,21.90
2022-09-06T08:59:08.290Z,21.70
2022-09-06T09:01:41.549Z,22.00
2022-09-06T09:04:13.091Z,22.20
2022-09-06T09:06:39.777Z,22.70
2022-09-06T09:09:07.599Z,22.50
2022-09-06T09:11:36.055Z,22.60
2022-09-06T09:14:08.123Z,22.70
2022-09-06T09:16:34.957Z,22.80
2022-09-06T09:19:02.995Z,23.00
2022-09-06T09:21:31.828Z,23.10
2022-09-06T09:24:02.435Z,23.20
2022-09-06T09:26:31.554Z,23.20
2022-09-06T09:29:12.496Z,23.30
2022-09-06T09:31:57.560Z,23.30
2022-09-06T09:34:27.357Z,23.30
2022-09-06T09:40:02.257Z,23.30
2022-09-06T09:42:34.164Z,23.30
2022-09-06T09:45:01.706Z,23.50
2022-09-06T09:47:29.876Z,23.60
2022-09-06T09:49:56.869Z,23.70
2022-09-06T09:52:29.439Z,23.60
2022-09-06T09:54:57.417Z,23.70
2022-09-06T09:57:24.280Z,24.20
2022-09-06T09:59:57.369Z,24.00
2022-09-06T10:02:24.057Z,24.10
2022-09-06T10:04:52.453Z,24.00
2022-09-06T10:07:25.632Z,24.10
2022-09-06T10:09:58.670Z,24.20
2022-09-06T10:12:32.640Z,24.40
2022-09-06T10:15:04.884Z,24.50
2022-09-06T10:17:36.526Z,24.60
2022-09-06T10:20:10.609Z,24.70
2022-09-06T10:22:40.356Z,24.70
2022-09-06T10:25:26.382Z,24.70
2022-09-06T10:28:10.830Z,24.80
2022-09-06T10:30:45.786Z,24.70
2022-09-06T10:33:22.353Z,24.70
2022-09-06T10:35:49.008Z,24.90
2022-09-06T10:38:15.666Z,24.90
2022-09-06T10:41:01.492Z,25.00
2022-09-06T10:43:30.805Z,25.00
2022-09-06T10:46:05.142Z,25.00
2022-09-06T10:48:42.225Z,25.10
2022-09-06T10:51:18.743Z,25.10
2022-09-06T10:54:06.750Z,25.20
2022-09-06T10:56:49.689Z,25.30
2022-09-06T10:59:36.233Z,25.30
2022-09-06T11:02:13.392Z,25.30
2022-09-06T11:10:45.467Z,25.30
2022-09-06T11:13:12.265Z,25.30
2022-09-06T11:15:57.768Z,25.20
2022-09-06T11:18:27.815Z,25.10
2022-09-06T11:21:17.439Z,25.10
2022-09-06T11:24:04.816Z,25.10
2022-09-06T11:26:45.574Z,25.00
2022-09-06T11:29:20.491Z,25.00
2022-09-06T11:34:39.706Z,25.00
2022-09-06T11:37:07.532Z,25.00
2022-09-06T11:42:40.588Z,25.10
2022-09-06T11:45:10.172Z,25.30
2022-09-06T11:47:37.230Z,25.40
2022-09-06T11:50:22.401Z,25.60
2022-09-06T11:52:50.335Z,25.70
2022-09-06T11:55:22.618Z,25.90
2022-09-06T11:57:53.830Z,26.10
2022-09-06T12:00:23.746Z,26.20
2022-09-06T12:02:51.359Z,26.30
2022-09-06T12:05:26.059Z,26.30
2022-09-06T12:08:11.138Z,26.30
2022-09-06T12:10:40.796Z,26.40
2022-09-06T12:13:39.990Z,26.50
2022-09-06T12:16:07.138Z,26.60
2022-09-06T12:18:43.034Z,26.70
2022-09-06T12:21:10.215Z,26.70
2022-09-06T12:23:36.861Z,26.80
2022-09-06T12:26:05.653Z,26.90
2022-09-06T12:28:42.938Z,26.90
2022-09-06T12:31:27.576Z,27.00
2022-09-06T12:33:54.976Z,27.00
2022-09-06T12:36:30.415Z,27.10
2022-09-06T12:38:58.989Z,27.10
2022-09-06T12:41:27.193Z,27.10
2022-09-06T12:43:55.921Z,27.00
2022-09-06T12:46:24.925Z,27.00
2022-09-06T12:49:01.590Z,27.00
2022-09-06T12:51:28.305Z,27.00
2022-09-06T12:53:59.437Z,27.00
2022-09-06T12:56:27.050Z,26.80
2022-09-06T12:59:09.628Z,26.70
2022-09-06T13:01:37.052Z,26.70
2022-09-06T13:04:07.203Z,26.70
2022-09-06T13:06:36.513Z,26.80
2022-09-06T13:09:03.359Z,26.90
2022-09-06T13:11:34.786Z,26.80
2022-09-06T13:14:01.910Z,26.80
2022-09-06T13:16:33.140Z,26.90
2022-09-06T13:19:14.032Z,26.90
2022-09-06T13:21:41.802Z,26.90
2022-09-06T13:24:22.938Z,26.90
2022-09-06T13:26:50.124Z,26.90
2022-09-06T13:29:16.803Z,26.90
2022-09-06T13:32:02.356Z,27.00
2022-09-06T13:34:30.809Z,26.90
2022-09-06T13:37:08.308Z,26.90
2022-09-06T13:39:37.518Z,27.00
2022-09-06T13:42:04.344Z,27.00
2022-09-06T13:44:31.803Z,27.10
2022-09-06T13:46:58.902Z,27.10
2022-09-06T13:49:25.724Z,27.20
2022-09-06T13:51:52.927Z,27.20
2022-09-06T13:54:20.204Z,27.20
2022-09-06T13:56:48.436Z,27.20
2022-09-06T13:59:15.374Z,27.20
2022-09-06T14:01:43.077Z,27.20
2022-09-06T14:04:11.317Z,27.20
2022-09-06T14:06:38.225Z,27.30
2022-09-06T14:09:07.799Z,27.30
2022-09-06T14:11:35.029Z,27.40
2022-09-06T14:14:01.879Z,27.40
2022-09-06T14:16:28.731Z,27.20
2022-09-06T14:18:55.420Z,27.20
2022-09-06T14:21:22.455Z,27.20
2022-09-06T14:23:52.657Z,27.30
2022-09-06T14:26:21.224Z,27.30
2022-09-06T14:28:48.392Z,27.30
2022-09-06T14:31:19.627Z,27.40
2022-09-06T14:33:46.592Z,27.40
2022-09-06T14:36:14.748Z,27.40
2022-09-06T14:38:42.310Z,27.40
2022-09-06T14:41:09.999Z,27.30
2022-09-06T14:43:37.001Z,27.10
2022-09-06T14:46:07.488Z,27.00
2022-09-06T14:48:37.182Z,27.00
2022-09-06T14:51:21.942Z,27.00
2022-09-06T14:53:49.809Z,26.90
2022-09-06T14:56:16.750Z,27.00
2022-09-06T14:58:43.857Z,27.00
2022-09-06T15:01:14.914Z,27.10
2022-09-06T15:03:42.965Z,27.10
2022-09-06T15:06:10.653Z,27.10
2022-09-06T15:08:37.977Z,27.00
2022-09-06T15:11:05.262Z,26.90
2022-09-06T15:13:32.409Z,26.80
2022-09-06T15:15:59.115Z,26.70
2022-09-06T15:18:25.939Z,26.60
2022-09-06T15:20:52.948Z,26.40
2022-09-06T15:23:25.189Z,26.30
2022-09-06T15:25:52.647Z,26.30
2022-09-06T15:28:19.442Z,26.20
2022-09-06T15:30:46.871Z,26.30
2022-09-06T15:33:15.027Z,26.40
2022-09-06T15:35:43.040Z,26.50
2022-09-06T15:38:12.855Z,26.40
2022-09-06T15:40:39.644Z,26.40
2022-09-06T15:43:06.468Z,26.20
2022-09-06T15:45:45.656Z,26.20
2022-09-06T15:48:12.378Z,26.10
2022-09-06T15:50:50.812Z,26.20
2022-09-06T15:53:18.208Z,26.30
2022-09-06T15:55:56.940Z,26.30
2022-09-06T15:58:24.591Z,26.30
2022-09-06T16:01:11.660Z,26.40
2022-09-06T16:03:40.320Z,26.30
2022-09-06T16:08:51.492Z,26.30
2022-09-06T16:11:18.522Z,26.30
2022-09-06T16:13:45.767Z,26.20
2022-09-06T16:16:13.628Z,26.20
2022-09-06T16:18:42.591Z,26.20
2022-09-06T16:21:13.661Z,26.00
2022-09-06T16:23:41.076Z,25.90
2022-09-06T16:26:08.831Z,25.90
2022-09-06T16:28:36.797Z,25.70
2022-09-06T16:31:04.619Z,25.70
2022-09-06T16:33:32.056Z,25.60
2022-09-06T16:35:59.272Z,25.50
2022-09-06T16:38:28.023Z,25.40
2022-09-06T16:40:55.178Z,25.30
2022-09-06T16:43:21.810Z,25.20
2022-09-06T16:45:58.477Z,25.10
2022-09-06T16:48:25.613Z,25.10
2022-09-06T16:50:52.445Z,25.20
2022-09-06T16:53:22.103Z,24.90
2022-09-06T16:55:48.969Z,24.90
2022-09-06T16:58:15.693Z,24.90
2022-09-06T17:00:44.807Z,24.70
2022-09-06T17:03:14.090Z,24.60
2022-09-06T17:05:41.162Z,24.50
2022-09-06T17:08:08.365Z,24.40
2022-09-06T17:10:37.697Z,25.10
2022-09-06T17:13:04.339Z,24.20
2022-09-06T17:15:51.070Z,24.10
2022-09-06T17:18:17.797Z,23.90
2022-09-06T17:20:54.180Z,23.90
2022-09-06T17:23:21.432Z,23.80
2022-09-06T17:25:48.362Z,23.70
2022-09-06T17:28:14.956Z,23.60
2022-09-06T17:30:41.606Z,23.50
2022-09-06T17:33:08.712Z,23.50
2022-09-06T17:35:35.381Z,23.40
2022-09-06T17:38:02.100Z,23.40
2022-09-06T17:40:28.767Z,23.20
2022-09-06T17:42:55.599Z,23.20
2022-09-06T17:45:22.360Z,23.20
2022-09-06T17:47:49.053Z,23.10
2022-09-06T17:50:15.784Z,23.00
2022-09-06T17:52:42.683Z,22.90
2022-09-06T17:55:09.461Z,22.80
2022-09-06T17:57:36.496Z,22.80
2022-09-06T18:00:04.078Z,24.10
2022-09-06T18:02:30.723Z,22.60
2022-09-06T18:04:57.483Z,22.50
2022-09-06T18:07:24.191Z,22.50
2022-09-06T18:09:50.866Z,22.40
2022-09-06T18:12:19.502Z,22.30
2022-09-06T18:14:46.152Z,22.20
2022-09-06T18:17:12.797Z,22.60
2022-09-06T18:19:39.637Z,24.20
2022-09-06T18:22:06.353Z,22.00
2022-09-06T18:24:33.114Z,22.00
2022-09-06T18:27:00.109Z,21.90
2022-09-06T18:29:26.828Z,21.80
2022-09-06T18:31:54.129Z,21.80
2022-09-06T18:34:21.047Z,23.30
2022-09-06T18:36:47.652Z,21.70
2022-09-06T18:39:14.323Z,21.60
2022-09-06T18:41:59.794Z,21.50
2022-09-06T18:44:32.351Z,22.10
2022-09-06T18:47:01.290Z,21.40
2022-09-06T18:49:28.281Z,21.40
2022-09-06T18:51:55.129Z,21.30
2022-09-06T18:54:21.884Z,22.10
2022-09-06T18:56:50.057Z,21.10
2022-09-06T18:59:17.202Z,22.00
2022-09-06T19:01:44.194Z,21.00
2022-09-06T19:04:11.964Z,20.90
2022-09-06T19:06:39.424Z,20.80
2022-09-06T19:09:08.179Z,20.80
2022-09-06T19:11:35.216Z,20.70
2022-09-06T19:14:02.375Z,20.50
2022-09-06T19:16:29.678Z,22.20
2022-09-06T19:18:56.999Z,21.90
2022-09-06T19:21:27.749Z,19.90
2022-09-06T19:23:58.995Z,20.10
2022-09-06T19:26:26.903Z,19.70
2022-09-06T19:28:53.579Z,19.70
2022-09-06T19:31:20.489Z,20.20
2022-09-06T19:33:48.218Z,21.30
2022-09-06T19:36:15.599Z,20.00
2022-09-06T19:39:02.036Z,21.10
2022-09-06T19:41:29.973Z,19.60
2022-09-06T19:43:57.309Z,19.60
2022-09-06T19:46:24.704Z,19.00
2022-09-06T19:49:01.388Z,19.50
2022-09-06T19:51:28.144Z,19.70
2022-09-06T19:54:00.077Z,19.40
2022-09-06T19:56:31.727Z,19.40
2022-09-06T19:58:59.521Z,19.20
2022-09-06T20:01:31.392Z,19.40
2022-09-06T20:03:58.864Z,19.20
2022-09-06T20:06:26.842Z,19.10
2022-09-06T20:08:54.510Z,19.00
2022-09-06T20:11:22.082Z,19.20
2022-09-06T20:13:48.979Z,18.80
2022-09-06T20:16:16.210Z,18.50
2022-09-06T20:18:43.051Z,18.50
2022-09-06T20:21:10.063Z,19.60
2022-09-06T20:23:37.275Z,18.70
2022-09-06T20:26:13.559Z,16.10
2022-09-06T20:28:40.810Z,18.60
2022-09-06T20:31:12.030Z,18.50
2022-09-06T20:33:39.579Z,18.80
2022-09-06T20:36:07.575Z,18.50
2022-09-06T20:38:35.687Z,18.50
2022-09-06T20:41:03.640Z,18.50
2022-09-06T20:43:36.711Z,18.40
2022-09-06T20:46:04.712Z,17.50
2022-09-06T20:48:32.864Z,18.50
2022-09-06T20:51:04.293Z,18.50
2022-09-06T20:53:34.520Z,15.00
2022-09-06T20:56:02.489Z,19.60
2022-09-06T20:58:29.900Z,18.10
2022-09-06T21:00:56.943Z,18.30
2022-09-06T21:03:24.371Z,18.20
2022-09-06T21:05:51.293Z,18.00
2022-09-06T21:08:18.266Z,18.30
2022-09-06T21:10:45.440Z,18.20
2022-09-06T21:13:12.721Z,19.50
2022-09-06T21:15:42.874Z,18.10
2022-09-06T21:18:09.938Z,18.20
2022-09-06T21:20:37.087Z,18.20
2022-09-06T21:23:04.313Z,18.10
2022-09-06T21:25:31.444Z,18.20
2022-09-06T21:27:58.285Z,18.10
2022-09-06T21:30:25.140Z,16.30
2022-09-06T21:32:53.407Z,18.10
2022-09-06T21:35:20.143Z,18.10
2022-09-06T21:37:47.031Z,18.70
2022-09-06T21:40:13.805Z,18.00
2022-09-06T21:42:40.601Z,18.20
2022-09-06T21:45:07.667Z,19.60
2022-09-06T21:47:34.494Z,17.90
2022-09-06T21:50:01.348Z,17.90
2022-09-06T21:52:32.412Z,19.40
2022-09-06T21:54:59.720Z,19.60
2022-09-06T21:57:26.540Z,17.60
2022-09-06T21:59:53.698Z,17.70
2022-09-06T22:02:20.890Z,20.10
2022-09-06T22:04:48.737Z,19.40
2022-09-06T22:07:15.534Z,19.20
2022-09-06T22:09:42.376Z,17.60
2022-09-06T22:12:09.175Z,17.70
2022-09-06T22:14:36.003Z,20.10
2022-09-06T22:17:02.844Z,17.70
2022-09-06T22:19:29.649Z,17.60
2022-09-06T22:21:56.513Z,17.60
2022-09-06T22:24:23.303Z,17.90
2022-09-06T22:26:50.122Z,17.60
2022-09-06T22:29:16.947Z,17.50
2022-09-06T22:31:43.818Z,17.50
2022-09-06T22:34:10.705Z,18.70
2022-09-06T22:36:37.924Z,18.60
2022-09-06T22:39:05.152Z,19.90
2022-09-06T22:41:32.482Z,17.40
2022-09-06T22:44:00.322Z,17.50
2022-09-06T22:46:27.326Z,17.30
2022-09-06T22:48:54.854Z,17.50
2022-09-06T22:51:21.808Z,17.50
2022-09-06T22:53:48.560Z,19.90
2022-09-06T22:56:15.409Z,20.80
2022-09-06T22:58:42.363Z,20.20
2022-09-06T23:01:10.457Z,16.70
2022-09-06T23:03:37.937Z,20.60
2022-09-06T23:06:04.731Z,20.00
2022-09-06T23:08:35.345Z,18.00
2022-09-06T23:11:06.985Z,19.60
2022-09-06T23:13:33.790Z,17.90
2022-09-06T23:16:06.975Z,19.20
2022-09-06T23:18:33.794Z,18.30
2022-09-06T23:21:07.717Z,19.10
2022-09-06T23:23:35.389Z,18.10
2022-09-06T23:26:12.253Z,18.30
2022-09-06T23:28:39.235Z,18.30
2022-09-06T23:31:06.768Z,19.90
2022-09-06T23:33:37.375Z,18.30
2022-09-06T23:36:09.675Z,18.80
2022-09-06T23:38:37.260Z,18.50
2022-09-06T23:41:04.348Z,18.60
2022-09-06T23:43:31.279Z,16.70
2022-09-06T23:45:58.581Z,16.80
2022-09-06T23:48:25.619Z,18.30
2022-09-06T23:50:52.382Z,19.80
2022-09-06T23:53:19.234Z,20.30
2022-09-06T23:55:46.386Z,18.30
2022-09-06T23:58:15.057Z,19.10
